Time;durP1;ratioP1;P1;durP2;ratioP2;P2;SDS_P1;SDS_P2;PMS_P1;PMS_P2;Temp;Humidity;BMP_temperature;BMP_pressure;BME280_temperature;BME280_humidity;BME280_pressure;Samples;Min_cycle;Max_cycle;Signal;HPM_P1;HPM_P2
2021/12/23 00:01:38;;;;;;;5.70;2.10;;;18.60;49.90;;;;;;5118423;28;20176;-85
2021/12/23 00:04:09;;;;;;;4.57;2.15;;;18.50;49.90;;;;;;5101987;28;20203;-85
2021/12/23 00:06:36;;;;;;;4.30;2.28;;;18.60;49.80;;;;;;5116753;28;20180;-85
2021/12/23 00:09:04;;;;;;;2.80;2.05;;;18.60;50.00;;;;;;5116629;28;20212;-86
2021/12/23 00:11:30;;;;;;;5.10;2.20;;;18.60;50.00;;;;;;5116783;28;20610;-85
2021/12/23 00:14:03;;;;;;;3.70;2.30;;;18.50;49.80;;;;;;5116254;28;20190;-85
2021/12/23 00:16:49;;;;;;;4.68;2.00;;;18.50;49.90;;;;;;5116736;28;20178;-85
2021/12/23 00:24:37;;;;;;;2.40;1.95;;;18.40;50.00;;;;;;5133407;28;20148;-85
2021/12/23 00:27:03;;;;;;;4.93;2.10;;;18.50;49.90;;;;;;5100564;28;20302;-85
2021/12/23 00:29:29;;;;;;;6.53;2.15;;;18.40;50.00;;;;;;5134441;28;20149;-85
2021/12/23 00:31:55;;;;;;;6.50;2.20;;;18.50;50.10;;;;;;5117563;28;20174;-85
2021/12/23 00:34:20;;;;;;;4.13;1.90;;;18.50;50.00;;;;;;5134141;28;20152;-85
2021/12/23 00:36:48;;;;;;;8.40;2.15;;;18.40;50.00;;;;;;5134162;28;20149;-85
2021/12/23 00:39:16;;;;;;;4.22;2.10;;;18.40;50.00;;;;;;5100503;28;20168;-85
2021/12/23 00:41:45;;;;;;;4.43;2.20;;;18.50;49.90;;;;;;5118958;28;20149;-85
2021/12/23 00:44:11;;;;;;;3.58;2.03;;;18.40;50.00;;;;;;5116431;28;20620;-85
2021/12/23 00:46:39;;;;;;;4.30;2.20;;;18.40;50.00;;;;;;5100093;28;20176;-86
2021/12/23 00:49:05;;;;;;;3.00;1.88;;;18.40;50.00;;;;;;5100089;28;20152;-85
2021/12/23 00:51:34;;;;;;;3.38;2.58;;;18.40;50.00;;;;;;5099815;28;20183;-85
2021/12/23 00:54:04;;;;;;;3.42;2.10;;;18.40;50.10;;;;;;5099827;28;20187;-85
2021/12/23 00:56:36;;;;;;;5.88;2.30;;;18.40;50.10;;;;;;5101303;28;20282;-85
2021/12/23 00:59:05;;;;;;;5.60;2.60;;;18.30;49.90;;;;;;5099960;28;20626;-85
2021/12/23 01:01:32;;;;;;;3.00;2.08;;;18.40;50.00;;;;;;5100256;28;20160;-86
2021/12/23 01:03:59;;;;;;;5.22;2.00;;;18.40;50.00;;;;;;5100004;28;20622;-85
2021/12/23 01:06:28;;;;;;;4.63;2.15;;;18.40;50.10;;;;;;5099580;28;20251;-85
2021/12/23 01:08:54;;;;;;;3.83;2.40;;;18.40;50.00;;;;;;5101706;28;20166;-85
2021/12/23 01:11:21;;;;;;;3.53;2.20;;;18.40;50.60;;;;;;5103855;28;20171;-85
2021/12/23 01:14:01;;;;;;;5.65;2.60;;;18.40;50.00;;;;;;5103287;28;20156;-85
2021/12/23 01:19:12;;;;;;;3.40;2.20;;;18.40;50.00;;;;;;5104739;28;20241;-85
2021/12/23 01:21:39;;;;;;;2.92;2.00;;;18.30;50.00;;;;;;5103562;28;20221;-85
2021/12/23 01:24:05;;;;;;;3.20;2.00;;;18.40;50.00;;;;;;5110417;28;20168;-85
2021/12/23 01:26:32;;;;;;;7.28;2.13;;;18.40;50.00;;;;;;5110359;28;20179;-85
2021/12/23 01:28:58;;;;;;;3.75;2.10;;;18.30;50.00;;;;;;5109925;28;20167;-85
2021/12/23 01:31:25;;;;;;;5.25;2.10;;;18.40;49.90;;;;;;5093165;28;20617;-85
2021/12/23 01:33:51;;;;;;;3.28;1.98;;;18.40;49.80;;;;;;5093808;28;20164;-85
2021/12/23 01:36:18;;;;;;;5.72;1.98;;;18.40;49.90;;;;;;5110085;28;20498;-85
2021/12/23 01:38:43;;;;;;;3.88;1.80;;;18.40;49.90;;;;;;5109921;28;20210;-85
2021/12/23 01:41:10;;;;;;;3.45;2.10;;;18.30;50.00;;;;;;5110774;28;20568;-85
2021/12/23 01:43:37;;;;;;;4.50;2.08;;;18.20;49.80;;;;;;5109749;28;20152;-86
2021/12/23 01:46:03;;;;;;;3.90;2.00;;;18.30;49.90;;;;;;5110399;28;20220;-85
2021/12/23 01:48:30;;;;;;;5.57;2.10;;;18.40;49.90;;;;;;5110526;28;20269;-85
2021/12/23 01:50:55;;;;;;;4.90;2.03;;;18.30;50.00;;;;;;5110139;28;20195;-85
2021/12/23 01:53:25;;;;;;;3.78;2.40;;;18.30;49.90;;;;;;5110144;28;20156;-85
2021/12/23 01:55:54;;;;;;;3.75;2.00;;;18.30;49.70;;;;;;5109800;28;20226;-85
2021/12/23 01:58:21;;;;;;;2.85;1.80;;;18.30;49.90;;;;;;5110467;28;20604;-85
2021/12/23 02:00:49;;;;;;;3.85;2.00;;;18.30;49.80;;;;;;5109786;28;20164;-85
2021/12/23 02:03:16;;;;;;;3.05;1.95;;;18.30;49.90;;;;;;5110088;28;20249;-85
2021/12/23 02:05:46;;;;;;;3.10;1.85;;;18.30;49.90;;;;;;5092432;28;20195;-85
2021/12/23 02:08:12;;;;;;;3.42;1.92;;;18.20;50.00;;;;;;5109971;28;20227;-85
2021/12/23 02:10:44;;;;;;;3.90;2.35;;;18.30;50.00;;;;;;5110057;28;20168;-86
2021/12/23 02:13:10;;;;;;;3.17;2.00;;;18.30;49.90;;;;;;5110140;28;20160;-85
2021/12/23 02:15:36;;;;;;;4.55;2.28;;;18.30;50.00;;;;;;5109549;28;20156;-85
2021/12/23 02:18:01;;;;;;;4.63;1.88;;;18.20;50.00;;;;;;5109575;28;20160;-86
2021/12/23 02:20:32;;;;;;;4.00;1.98;;;18.30;50.10;;;;;;5109858;28;20186;-85
2021/12/23 02:22:59;;;;;;;3.25;1.92;;;18.20;50.20;;;;;;5109316;28;20167;-85
2021/12/23 02:25:28;;;;;;;5.20;2.17;;;18.30;50.30;;;;;;5109953;28;20684;-85
2021/12/23 02:27:54;;;;;;;3.13;1.90;;;18.20;50.20;;;;;;5109446;28;20164;-85
2021/12/23 02:30:22;;;;;;;3.58;1.90;;;18.20;50.30;;;;;;5109263;28;20639;-85
2021/12/23 02:32:50;;;;;;;3.05;1.90;;;18.20;50.20;;;;;;5109853;28;20172;-85
2021/12/23 02:35:17;;;;;;;3.88;2.22;;;18.20;50.30;;;;;;5109344;28;20164;-85
2021/12/23 02:37:44;;;;;;;3.50;2.00;;;18.10;50.30;;;;;;5109546;28;20634;-85
2021/12/23 02:40:14;;;;;;;3.80;2.10;;;18.10;50.20;;;;;;5109557;28;20164;-85
2021/12/23 02:42:41;;;;;;;2.90;1.80;;;18.10;50.10;;;;;;5108705;28;20164;-85
2021/12/23 02:45:09;;;;;;;3.20;1.83;;;18.10;50.10;;;;;;5108445;28;20224;-86
2021/12/23 02:47:37;;;;;;;2.63;1.88;;;18.10;50.30;;;;;;5109783;28;20148;-85
2021/12/23 02:50:04;;;;;;;3.70;2.10;;;18.10;50.20;;;;;;5109674;28;20159;-85
2021/12/23 02:52:32;;;;;;;2.47;1.80;;;18.10;50.30;;;;;;5109381;28;20646;-87
2021/12/23 02:54:58;;;;;;;4.80;2.05;;;18.10;50.30;;;;;;5108916;28;20148;-85
2021/12/23 02:57:26;;;;;;;3.30;2.00;;;18.10;50.40;;;;;;5109368;28;20183;-85
2021/12/23 02:59:52;;;;;;;3.65;1.88;;;18.10;50.30;;;;;;5108867;28;20183;-85
2021/12/23 03:02:19;;;;;;;3.25;2.00;;;18.20;50.40;;;;;;5109130;28;20675;-85
2021/12/23 03:04:48;;;;;;;4.85;2.13;;;18.10;50.30;;;;;;5108625;28;20191;-85
2021/12/23 03:07:15;;;;;;;3.33;2.10;;;18.10;50.50;;;;;;5108182;28;20176;-85
2021/12/23 03:09:46;;;;;;;3.80;1.80;;;18.00;50.30;;;;;;5108851;28;20166;-85
2021/12/23 03:12:13;;;;;;;4.18;2.00;;;18.10;50.40;;;;;;5126748;28;20152;-85
2021/12/23 03:14:39;;;;;;;3.25;1.77;;;18.10;50.30;;;;;;5108180;28;20302;-85
2021/12/23 03:17:06;;;;;;;3.25;1.88;;;18.10;50.30;;;;;;5091529;28;20217;-85
2021/12/23 03:19:33;;;;;;;3.75;1.90;;;18.10;50.10;;;;;;5108930;28;20148;-86
2021/12/23 03:22:00;;;;;;;2.90;1.92;;;18.10;50.30;;;;;;5109210;28;20205;-85
2021/12/23 03:24:25;;;;;;;4.72;2.00;;;18.10;50.20;;;;;;5108834;28;20193;-85
2021/12/23 03:26:52;;;;;;;3.05;1.75;;;18.00;50.30;;;;;;5108569;28;20187;-85
2021/12/23 03:29:19;;;;;;;3.47;1.88;;;18.10;50.40;;;;;;5108419;28;20160;-85
2021/12/23 03:31:47;;;;;;;3.55;1.77;;;18.00;50.40;;;;;;5108504;28;20187;-85
2021/12/23 03:34:12;;;;;;;3.97;1.70;;;18.00;50.30;;;;;;5108957;28;20156;-85
2021/12/23 03:36:39;;;;;;;2.80;1.92;;;18.00;50.30;;;;;;5108520;28;20187;-85
2021/12/23 03:39:05;;;;;;;5.05;2.10;;;18.00;50.40;;;;;;5090902;28;20591;-85
2021/12/23 03:41:32;;;;;;;3.45;2.00;;;18.00;50.30;;;;;;5108510;28;20199;-85
2021/12/23 03:43:57;;;;;;;2.95;1.80;;;18.00;50.30;;;;;;5108244;28;20214;-85
2021/12/23 03:46:29;;;;;;;2.40;1.98;;;18.00;50.30;;;;;;5108535;28;20207;-85
2021/12/23 03:48:56;;;;;;;3.67;1.95;;;18.00;50.20;;;;;;5127114;28;20175;-85
2021/12/23 03:51:23;;;;;;;4.78;1.90;;;17.90;50.20;;;;;;5126359;28;20156;-85
2021/12/23 03:53:48;;;;;;;2.67;1.77;;;18.00;50.30;;;;;;5126359;28;20215;-85
2021/12/23 03:56:18;;;;;;;4.20;2.00;;;18.00;50.40;;;;;;5108588;28;20555;-85
2021/12/23 03:58:44;;;;;;;4.75;1.88;;;18.00;50.30;;;;;;5108853;28;20163;-85
2021/12/23 04:01:10;;;;;;;3.13;1.92;;;18.00;50.20;;;;;;5108375;28;20163;-85
2021/12/23 04:03:36;;;;;;;4.43;2.08;;;18.00;50.20;;;;;;5108157;28;20168;-85
2021/12/23 04:06:02;;;;;;;3.88;2.03;;;18.00;50.30;;;;;;5108594;28;20192;-86
2021/12/23 04:08:29;;;;;;;2.58;1.90;;;18.00;50.30;;;;;;5108651;28;20152;-85
2021/12/23 04:11:01;;;;;;;3.67;1.92;;;17.90;50.30;;;;;;5108808;28;20545;-85
2021/12/23 04:13:28;;;;;;;4.78;1.80;;;17.90;50.20;;;;;;5107141;28;20148;-85
2021/12/23 04:15:55;;;;;;;2.35;1.75;;;17.90;50.30;;;;;;5107526;28;20167;-85
2021/12/23 04:18:22;;;;;;;4.32;1.52;;;18.00;50.10;;;;;;5091641;28;20194;-85
2021/12/23 04:20:55;;;;;;;2.88;1.60;;;18.00;49.70;;;;;;5109137;28;20618;-85
2021/12/23 04:23:46;;;;;;;3.47;1.77;;;18.10;49.20;;;;;;5109358;28;20148;-85
2021/12/23 04:26:12;;;;;;;2.58;1.80;;;18.20;49.50;;;;;;5108320;28;20191;-85
2021/12/23 04:28:45;;;;;;;3.42;1.90;;;18.20;49.10;;;;;;5108521;28;20153;-85
2021/12/23 04:31:14;;;;;;;4.00;1.90;;;18.20;48.90;;;;;;5109724;28;20149;-85
2021/12/23 04:33:40;;;;;;;2.83;1.80;;;18.30;49.10;;;;;;5108565;28;20144;-85
2021/12/23 04:36:08;;;;;;;2.58;1.88;;;18.30;48.90;;;;;;5107867;28;20235;-85
2021/12/23 04:38:37;;;;;;;4.68;1.88;;;18.40;49.00;;;;;;5108388;28;20239;-84
2021/12/23 04:41:04;;;;;;;3.53;1.90;;;18.30;48.90;;;;;;5108131;28;20156;-84
2021/12/23 04:43:31;;;;;;;2.47;1.90;;;18.40;48.90;;;;;;5108087;28;20566;-85
2021/12/23 04:46:03;;;;;;;3.50;1.77;;;18.40;48.40;;;;;;5112051;28;20215;-84
2021/12/23 04:48:30;;;;;;;2.13;1.80;;;18.40;49.30;;;;;;5112487;28;20162;-85
2021/12/23 04:50:56;;;;;;;5.60;2.00;;;18.40;49.10;;;;;;5112170;28;20513;-84
2021/12/23 04:53:25;;;;;;;3.75;1.98;;;18.40;48.20;;;;;;5111985;28;20160;-85
2021/12/23 04:55:52;;;;;;;3.63;1.50;;;18.50;48.40;;;;;;5111706;28;20172;-85
2021/12/23 04:58:24;;;;;;;3.28;1.98;;;18.50;48.00;;;;;;5094674;28;20159;-85
2021/12/23 05:00:51;;;;;;;3.63;1.77;;;18.50;48.00;;;;;;5112239;28;20224;-85
2021/12/23 05:03:21;;;;;;;4.55;1.75;;;18.50;47.80;;;;;;5112031;28;20186;-85
2021/12/23 05:05:50;;;;;;;1.60;1.50;;;18.50;47.60;;;;;;5111298;28;20211;-85
2021/12/23 05:08:17;;;;;;;3.63;1.80;;;18.50;48.00;;;;;;5111650;28;20148;-85
2021/12/23 05:10:45;;;;;;;2.15;1.60;;;18.60;48.20;;;;;;5111471;28;20207;-85
2021/12/23 05:13:12;;;;;;;3.75;1.73;;;18.60;47.70;;;;;;5111468;28;20160;-85
2021/12/23 05:15:38;;;;;;;2.53;1.80;;;18.60;47.70;;;;;;5094039;28;20164;-85
2021/12/23 05:18:05;;;;;;;4.13;1.73;;;18.60;47.60;;;;;;5111335;28;20175;-85
2021/12/23 05:20:32;;;;;;;3.75;1.80;;;18.60;47.60;;;;;;5112120;28;20186;-85
2021/12/23 05:22:59;;;;;;;3.30;1.73;;;18.60;48.00;;;;;;5110786;28;20225;-85
2021/12/23 05:25:26;;;;;;;4.57;1.92;;;18.60;47.50;;;;;;5111307;28;20200;-84
2021/12/23 05:27:54;;;;;;;3.10;1.90;;;18.60;47.30;;;;;;5111452;28;20158;-85
2021/12/23 05:30:22;;;;;;;3.25;1.80;;;18.70;47.40;;;;;;5112080;28;20152;-85
2021/12/23 05:32:47;;;;;;;2.00;1.65;;;18.70;47.30;;;;;;5110861;28;20263;-85
2021/12/23 05:35:14;;;;;;;3.22;1.50;;;18.70;47.30;;;;;;5111170;28;20186;-85
2021/12/23 05:37:44;;;;;;;2.70;1.50;;;18.70;47.20;;;;;;5111207;28;20240;-85
2021/12/23 05:40:11;;;;;;;2.42;1.65;;;18.70;47.30;;;;;;5110912;28;20156;-85
2021/12/23 05:42:37;;;;;;;3.03;2.00;;;18.70;47.40;;;;;;5110764;28;20187;-85
2021/12/23 05:45:03;;;;;;;2.78;1.70;;;18.60;47.20;;;;;;5121643;27;20223;-85
2021/12/23 05:47:29;;;;;;;5.50;1.77;;;18.70;47.30;;;;;;5131717;27;20164;-85
2021/12/23 05:50:00;;;;;;;1.80;1.58;;;18.70;47.40;;;;;;5131321;27;20228;-85
2021/12/23 05:52:26;;;;;;;2.42;1.67;;;18.70;47.40;;;;;;5131256;27;20167;-85
2021/12/23 05:54:52;;;;;;;4.63;1.95;;;18.70;46.90;;;;;;5130538;27;20177;-85
2021/12/23 05:57:20;;;;;;;1.58;1.48;;;18.80;47.10;;;;;;5131307;27;20211;-85
2021/12/23 05:59:47;;;;;;;1.80;1.60;;;18.70;47.00;;;;;;5130635;27;20177;-85
2021/12/23 06:02:13;;;;;;;3.03;1.77;;;18.80;47.00;;;;;;5130980;27;20157;-85
2021/12/23 06:04:39;;;;;;;2.45;1.60;;;18.80;47.20;;;;;;5129548;27;20254;-84
2021/12/23 06:07:05;;;;;;;1.92;1.70;;;18.80;47.00;;;;;;5126200;27;20159;-84
2021/12/23 06:09:31;;;;;;;2.35;1.40;;;18.80;46.80;;;;;;5127861;27;20154;-84
2021/12/23 06:11:57;;;;;;;3.58;1.58;;;18.70;46.90;;;;;;5129255;27;20152;-85
2021/12/23 06:14:23;;;;;;;3.22;1.80;;;18.80;46.90;;;;;;5130693;27;20226;-85
2021/12/23 06:16:50;;;;;;;2.88;1.40;;;18.80;46.90;;;;;;5107738;28;20180;-85
2021/12/23 06:19:17;;;;;;;2.50;1.60;;;18.80;46.60;;;;;;5090522;28;20244;-85
2021/12/23 06:21:44;;;;;;;2.65;1.63;;;18.80;46.80;;;;;;5108190;28;20187;-85
2021/12/23 06:24:09;;;;;;;2.90;1.65;;;18.80;46.80;;;;;;5108391;28;20613;-85
2021/12/23 06:26:36;;;;;;;2.45;1.35;;;18.90;46.70;;;;;;5107129;28;20214;-85
2021/12/23 06:29:03;;;;;;;3.42;1.70;;;18.90;46.70;;;;;;5107202;28;20159;-84
2021/12/23 06:31:29;;;;;;;2.08;1.48;;;18.80;46.70;;;;;;5090005;28;20180;-84
2021/12/23 06:33:55;;;;;;;3.50;1.67;;;18.90;46.70;;;;;;5104809;28;20152;-85
2021/12/23 06:36:21;;;;;;;1.95;1.65;;;18.90;46.70;;;;;;5106873;28;20227;-84
2021/12/23 06:38:47;;;;;;;1.83;1.50;;;18.90;46.80;;;;;;5107878;28;20172;-84
2021/12/23 06:41:13;;;;;;;5.25;1.90;;;18.90;46.70;;;;;;5106638;28;20182;-84
2021/12/23 06:43:39;;;;;;;3.35;1.70;;;19.00;46.80;;;;;;5106907;28;20168;-84
2021/12/23 06:46:05;;;;;;;2.13;1.60;;;19.00;46.70;;;;;;5103451;28;20682;-84
2021/12/23 06:48:33;;;;;;;3.17;1.40;;;19.00;46.40;;;;;;5105396;28;20637;-84
2021/12/23 06:51:00;;;;;;;3.08;1.65;;;19.10;46.40;;;;;;5108421;28;20167;-84
2021/12/23 06:53:27;;;;;;;3.17;1.63;;;19.10;46.40;;;;;;5107668;28;20233;-84
2021/12/23 06:55:55;;;;;;;2.88;1.50;;;19.10;46.30;;;;;;5090854;28;20195;-84
2021/12/23 06:58:24;;;;;;;3.15;1.77;;;19.00;46.30;;;;;;5091720;28;20203;-84
2021/12/23 07:00:51;;;;;;;2.85;1.85;;;19.10;46.30;;;;;;5107902;28;20172;-84
2021/12/23 07:03:16;;;;;;;4.13;1.55;;;19.10;46.90;;;;;;5103673;28;20235;-83
2021/12/23 07:05:44;;;;;;;3.15;1.40;;;19.00;46.10;;;;;;5119444;28;20273;-84
2021/12/23 07:08:24;;;;;;;2.75;1.50;;;19.10;46.10;;;;;;5104860;28;20152;-84
2021/12/23 07:10:50;;;;;;;3.20;1.58;;;19.10;46.10;;;;;;5104979;28;20180;-84
2021/12/23 07:13:17;;;;;;;2.35;1.75;;;19.20;46.20;;;;;;5102951;28;20237;-83
2021/12/23 07:15:42;;;;;;;4.18;1.58;;;19.20;46.20;;;;;;5103659;28;20160;-84
2021/12/23 07:18:09;;;;;;;2.35;1.70;;;19.10;46.10;;;;;;5089408;28;20357;-85
2021/12/23 07:20:37;;;;;;;3.65;1.75;;;19.10;46.10;;;;;;5088955;28;20168;-84
2021/12/23 07:23:03;;;;;;;2.58;1.90;;;19.10;46.00;;;;;;5124500;28;20156;-83
2021/12/23 07:25:29;;;;;;;2.80;1.50;;;19.10;46.20;;;;;;5107063;28;20192;-84
2021/12/23 07:27:55;;;;;;;3.08;1.90;;;19.10;46.10;;;;;;5089356;28;20235;-83
2021/12/23 07:30:21;;;;;;;2.60;1.30;;;19.10;46.10;;;;;;5105344;28;20231;-83
2021/12/23 07:32:49;;;;;;;2.97;1.60;;;19.10;46.10;;;;;;5089709;28;20360;-84
2021/12/23 07:35:15;;;;;;;1.92;1.60;;;19.20;46.20;;;;;;5091047;28;20168;-85
2021/12/23 07:37:41;;;;;;;3.42;1.63;;;19.20;46.20;;;;;;5089993;28;20172;-85
2021/12/23 07:40:08;;;;;;;3.15;1.70;;;19.20;46.30;;;;;;5105615;28;20176;-84
2021/12/23 07:42:34;;;;;;;2.90;1.65;;;19.20;46.30;;;;;;5089780;28;20176;-84
2021/12/23 07:45:01;;;;;;;1.92;1.50;;;19.30;46.40;;;;;;5113489;28;20269;-83
2021/12/23 07:47:27;;;;;;;2.13;1.40;;;19.20;46.40;;;;;;5126077;28;20179;-84
2021/12/23 07:49:52;;;;;;;2.20;1.52;;;19.20;46.30;;;;;;5123677;28;20163;-84
2021/12/23 07:52:20;;;;;;;1.40;1.30;;;19.30;46.30;;;;;;5122221;28;20159;-84
2021/12/23 07:54:47;;;;;;;2.55;1.63;;;19.20;46.30;;;;;;5119866;28;20152;-83
2021/12/23 07:57:13;;;;;;;3.65;1.77;;;19.20;46.30;;;;;;5119267;28;20201;-84
2021/12/23 07:59:39;;;;;;;2.17;1.42;;;19.20;46.40;;;;;;5119655;28;20212;-84
2021/12/23 08:02:04;;;;;;;3.72;1.50;;;19.30;46.50;;;;;;5119933;28;20163;-84
2021/12/23 08:04:33;;;;;;;2.65;1.98;;;19.30;46.50;;;;;;5122126;28;20231;-84
2021/12/23 08:07:02;;;;;;;2.50;1.50;;;19.30;46.50;;;;;;5103292;28;20626;-82
2021/12/23 08:09:28;;;;;;;3.45;1.50;;;19.30;46.50;;;;;;5122201;28;20164;-84
2021/12/23 08:11:54;;;;;;;2.60;1.40;;;19.30;46.40;;;;;;5120461;28;20499;-83
2021/12/23 08:14:21;;;;;;;2.55;1.70;;;19.30;46.30;;;;;;5120721;28;20206;-84
2021/12/23 08:16:48;;;;;;;2.25;1.50;;;19.30;46.20;;;;;;5123175;28;20184;-83
2021/12/23 08:19:13;;;;;;;2.47;1.45;;;19.30;46.00;;;;;;5123678;28;20156;-83
2021/12/23 08:21:40;;;;;;;2.42;1.80;;;19.40;46.10;;;;;;5123497;28;20168;-84
2021/12/23 08:24:07;;;;;;;2.40;1.40;;;19.40;46.20;;;;;;5124157;28;20156;-83
2021/12/23 08:26:39;;;;;;;1.73;1.52;;;19.40;46.00;;;;;;5143328;27;20243;-84
2021/12/23 08:29:06;;;;;;;2.78;1.40;;;19.30;46.00;;;;;;5125681;27;20165;-83
2021/12/23 08:31:32;;;;;;;1.80;1.40;;;19.40;46.20;;;;;;5124533;28;20144;-84
2021/12/23 08:34:01;;;;;;;3.20;1.60;;;19.40;46.20;;;;;;5124722;28;20160;-82
2021/12/23 08:36:27;;;;;;;1.88;1.45;;;19.40;46.20;;;;;;5107948;28;20164;-84
2021/12/23 08:38:54;;;;;;;2.97;1.83;;;19.40;46.20;;;;;;5125564;28;20566;-84
2021/12/23 08:41:20;;;;;;;2.13;1.50;;;19.40;46.30;;;;;;5126527;28;20167;-84
2021/12/23 08:43:46;;;;;;;2.20;1.63;;;19.40;46.20;;;;;;5107224;28;20168;-84
2021/12/23 08:46:12;;;;;;;2.28;1.70;;;19.40;46.20;;;;;;5104732;28;20188;-84
2021/12/23 08:48:40;;;;;;;2.55;1.80;;;19.40;46.20;;;;;;5123401;28;20155;-84
2021/12/23 08:51:06;;;;;;;4.28;1.70;;;19.40;46.20;;;;;;5139719;27;20518;-84
2021/12/23 08:53:32;;;;;;;1.77;1.30;;;19.40;46.20;;;;;;5106053;28;20246;-85
2021/12/23 08:55:58;;;;;;;2.45;1.70;;;19.40;46.40;;;;;;5107345;28;20178;-83
2021/12/23 08:58:24;;;;;;;3.03;1.48;;;19.40;46.30;;;;;;5121827;28;20236;-85
2021/12/23 09:00:50;;;;;;;2.53;1.60;;;19.40;46.20;;;;;;5141351;27;20191;-84
2021/12/23 09:03:16;;;;;;;2.65;1.83;;;19.40;46.00;;;;;;5138758;27;20589;-86
2021/12/23 09:05:41;;;;;;;3.50;1.40;;;19.40;46.40;;;;;;5121668;28;20236;-84
2021/12/23 09:08:09;;;;;;;1.95;1.52;;;19.40;46.00;;;;;;5125009;28;20231;-86
2021/12/23 09:10:37;;;;;;;3.90;1.60;;;19.40;46.40;;;;;;5122056;28;20534;-84
2021/12/23 09:13:03;;;;;;;2.70;1.27;;;19.50;46.50;;;;;;5122417;28;20273;-85
2021/12/23 09:15:30;;;;;;;2.22;1.33;;;19.40;46.60;;;;;;5148513;27;20617;-86
2021/12/23 09:17:56;;;;;;;2.90;1.50;;;19.40;46.40;;;;;;5144491;27;20174;-84
2021/12/23 09:20:22;;;;;;;2.88;1.40;;;19.40;46.60;;;;;;5127821;27;20235;-86
2021/12/23 09:22:48;;;;;;;2.28;1.20;;;19.50;46.30;;;;;;5123693;27;20194;-85
2021/12/23 09:28:06;;;;;;;2.45;1.50;;;19.50;46.30;;;;;;5143502;27;20159;-84
2021/12/23 09:33:19;;;;;;;1.83;1.45;;;19.50;46.20;;;;;;5144012;27;20232;-86
2021/12/23 09:35:48;;;;;;;1.80;1.40;;;19.50;46.20;;;;;;5124441;27;20174;-85
2021/12/23 09:38:16;;;;;;;3.50;1.60;;;19.50;46.00;;;;;;5123654;27;20226;-85
2021/12/23 09:40:42;;;;;;;2.10;1.63;;;19.60;46.20;;;;;;5143021;27;20190;-86
2021/12/23 09:43:09;;;;;;;4.05;1.75;;;19.50;46.50;;;;;;5141470;27;20155;-86
2021/12/23 09:45:36;;;;;;;3.13;1.73;;;19.50;46.50;;;;;;5125005;27;20222;-86
2021/12/23 09:48:02;;;;;;;2.08;1.40;;;19.50;46.70;;;;;;5108355;27;20166;-86
2021/12/23 09:50:30;;;;;;;2.70;1.58;;;19.50;46.60;;;;;;5108508;27;20216;-84
2021/12/23 09:52:56;;;;;;;3.80;1.75;;;19.50;46.80;;;;;;5109114;27;20178;-85
2021/12/23 09:55:25;;;;;;;2.53;1.45;;;19.50;46.90;;;;;;5125105;27;20480;-85
2021/12/23 09:57:52;;;;;;;3.50;1.40;;;19.50;46.80;;;;;;5107195;27;20164;-85
2021/12/23 10:00:19;;;;;;;2.80;1.50;;;19.40;46.70;;;;;;5108569;27;20262;-85
2021/12/23 10:02:45;;;;;;;2.47;1.52;;;19.50;46.60;;;;;;5127084;27;20182;-85
2021/12/23 10:05:14;;;;;;;4.50;1.70;;;19.50;46.20;;;;;;5111769;27;20195;-86
2021/12/23 10:07:41;;;;;;;2.05;1.20;;;19.50;46.60;;;;;;5113664;27;20163;-87
2021/12/23 10:10:17;;;;;;;3.42;1.50;;;19.50;46.60;;;;;;5107134;28;20176;-86
2021/12/23 10:26:49;;;;;;;5.75;1.60;;;19.50;46.80;;;;;;5109100;28;20203;-86
2021/12/23 10:27:12;;;;;;;3.80;1.60;;;19.60;47.60;;;;;;5071641;28;20185;-88
2021/12/23 10:32:33;;;;;;;8.82;1.60;;;19.60;47.20;;;;;;5054076;28;20165;-86
2021/12/23 10:37:48;;;;;;;6.70;1.77;;;19.50;47.20;;;;;;5055349;28;20217;-86
2021/12/23 10:40:20;;;;;;;7.93;1.80;;;19.60;47.40;;;;;;5072149;28;20180;-87
2021/12/23 10:42:49;;;;;;;4.15;1.60;;;19.50;47.50;;;;;;5088889;28;20224;-89
2021/12/23 10:45:19;;;;;;;6.53;1.80;;;19.50;47.60;;;;;;5088896;27;20226;-86
2021/12/23 10:47:56;;;;;;;4.10;1.60;;;19.50;48.00;;;;;;5151475;27;20174;-86
2021/12/23 10:50:30;;;;;;;4.05;1.52;;;19.50;47.70;;;;;;5151545;27;20167;-88
2021/12/23 10:53:10;;;;;;;5.78;1.90;;;19.50;47.70;;;;;;5152091;27;20186;-87
2021/12/23 10:58:26;;;;;;;13.05;1.98;;;19.50;48.10;;;;;;5169349;27;20220;-87
2021/12/23 11:00:55;;;;;;;6.70;1.75;;;19.50;48.30;;;;;;5134107;27;20190;-87
2021/12/23 11:03:30;;;;;;;4.50;1.60;;;19.50;48.30;;;;;;5135075;27;20171;-85
2021/12/23 11:06:12;;;;;;;15.38;2.00;;;19.50;48.60;;;;;;5135511;27;20295;-89
2021/12/23 11:08:46;;;;;;;6.50;1.70;;;19.50;48.30;;;;;;5106361;28;20211;-87
2021/12/23 11:11:38;;;;;;;6.95;1.60;;;19.50;48.20;;;;;;5023192;28;20187;-87
2021/12/23 11:39:54;;;;;;;7.68;1.63;;;19.60;48.00;;;;;;5039573;28;20181;-86
2021/12/23 11:42:26;;;;;;;14.60;2.47;;;19.50;47.90;;;;;;5121938;27;20179;-86
2021/12/23 11:44:51;;;;;;;9.77;2.20;;;19.50;48.10;;;;;;5131627;27;20218;-86
2021/12/23 11:47:18;;;;;;;12.20;2.60;;;19.50;48.00;;;;;;5146260;27;20519;-86
2021/12/23 11:49:46;;;;;;;9.45;2.05;;;19.50;48.10;;;;;;5128376;27;20709;-86
2021/12/23 11:52:14;;;;;;;11.02;1.92;;;19.50;47.70;;;;;;5111887;27;20155;-85
2021/12/23 11:54:43;;;;;;;12.90;2.08;;;19.50;48.30;;;;;;5110564;27;20183;-86
2021/12/23 11:57:17;;;;;;;6.72;2.05;;;19.50;48.10;;;;;;5106124;28;20163;-85
2021/12/23 12:00:08;;;;;;;17.20;2.17;;;19.50;48.00;;;;;;5108059;28;20159;-84
2021/12/23 12:02:34;;;;;;;14.63;2.00;;;19.50;48.50;;;;;;5109870;28;20175;-85
2021/12/23 12:05:04;;;;;;;9.30;1.98;;;19.60;48.70;;;;;;5122360;28;20156;-86
2021/12/23 12:07:29;;;;;;;6.50;1.88;;;19.50;48.60;;;;;;5105397;28;20699;-85
2021/12/23 12:10:08;;;;;;;7.63;2.10;;;19.50;48.30;;;;;;5121555;28;20163;-85
2021/12/23 12:12:35;;;;;;;5.90;1.73;;;19.50;48.30;;;;;;5106461;28;20152;-84
2021/12/23 12:15:02;;;;;;;12.27;1.95;;;19.50;48.80;;;;;;5135455;27;20266;-84
2021/12/23 12:17:37;;;;;;;8.52;2.03;;;19.50;48.80;;;;;;5109505;27;20154;-85
2021/12/23 12:20:13;;;;;;;5.28;1.70;;;19.60;48.80;;;;;;5145443;27;20166;-85
2021/12/23 12:22:56;;;;;;;12.73;2.25;;;19.50;48.00;;;;;;5130851;27;20539;-85
2021/12/23 12:25:44;;;;;;;6.20;1.70;;;19.50;48.50;;;;;;5143882;27;20239;-84
2021/12/23 12:28:12;;;;;;;10.70;1.77;;;19.50;48.80;;;;;;5110273;27;20147;-84
2021/12/23 12:30:41;;;;;;;7.78;1.83;;;19.50;48.00;;;;;;5126361;27;20166;-84
2021/12/23 12:33:36;;;;;;;9.48;1.75;;;19.50;48.00;;;;;;5125626;27;20246;-84
2021/12/23 12:36:09;;;;;;;6.45;1.65;;;19.50;48.20;;;;;;5125262;27;20253;-85
2021/12/23 12:38:42;;;;;;;10.38;2.08;;;19.50;47.90;;;;;;5127101;27;20173;-84
2021/12/23 12:41:25;;;;;;;8.45;1.60;;;19.50;48.00;;;;;;5128404;27;20162;-85
2021/12/23 12:44:05;;;;;;;8.98;2.08;;;19.50;47.40;;;;;;5130338;27;20158;-85
2021/12/23 12:46:47;;;;;;;12.55;1.70;;;19.40;48.20;;;;;;5114266;27;20202;-85
2021/12/23 12:49:24;;;;;;;5.53;1.75;;;19.50;48.00;;;;;;5163479;27;20159;-85
2021/12/23 12:51:50;;;;;;;6.05;1.88;;;19.50;47.80;;;;;;5130015;27;20229;-85
2021/12/23 12:54:19;;;;;;;6.32;1.90;;;19.50;47.80;;;;;;5128218;27;20158;-85
2021/12/23 12:56:55;;;;;;;5.35;1.50;;;19.50;47.60;;;;;;5111390;27;20324;-85
2021/12/23 12:59:25;;;;;;;10.63;2.13;;;19.50;47.80;;;;;;5111471;27;20166;-85
2021/12/23 13:01:53;;;;;;;6.70;1.63;;;19.50;48.30;;;;;;5109889;27;20178;-85
2021/12/23 13:04:26;;;;;;;8.68;1.85;;;19.50;47.60;;;;;;5128503;27;20147;-85
2021/12/23 13:06:53;;;;;;;6.90;1.90;;;19.50;47.60;;;;;;5131448;27;20193;-85
2021/12/23 13:09:24;;;;;;;8.45;1.73;;;19.50;48.00;;;;;;5114205;27;20592;-85
2021/12/23 13:11:58;;;;;;;6.68;1.70;;;19.50;47.80;;;;;;5147704;27;20147;-85
2021/12/23 13:14:48;;;;;;;2.78;1.52;;;19.50;47.80;;;;;;5127593;27;20245;-84
2021/12/23 13:17:14;;;;;;;5.90;1.88;;;19.50;48.10;;;;;;5129101;27;20170;-84
2021/12/23 13:19:42;;;;;;;6.00;1.80;;;19.40;47.80;;;;;;5124393;27;20166;-85
2021/12/23 13:22:11;;;;;;;6.97;1.80;;;19.50;48.20;;;;;;5126697;27;20171;-84
2021/12/23 13:24:37;;;;;;;8.02;1.92;;;19.50;48.00;;;;;;5111139;27;20531;-84
2021/12/23 13:27:03;;;;;;;5.50;1.60;;;19.50;48.50;;;;;;5127188;27;20202;-85
2021/12/23 13:29:30;;;;;;;5.68;1.98;;;19.50;48.20;;;;;;5128203;27;20177;-84
2021/12/23 13:31:57;;;;;;;4.22;1.38;;;19.50;48.40;;;;;;5129127;27;20169;-84
2021/12/23 13:34:26;;;;;;;4.30;1.67;;;19.40;48.10;;;;;;5129352;27;20139;-84
2021/12/23 13:37:02;;;;;;;6.68;1.80;;;19.40;48.20;;;;;;5145865;27;20516;-84
2021/12/23 13:39:31;;;;;;;4.22;1.58;;;19.50;48.00;;;;;;5129038;27;20201;-83
2021/12/23 13:41:59;;;;;;;4.03;1.60;;;19.50;47.90;;;;;;5111401;27;20167;-84
2021/12/23 13:44:27;;;;;;;7.43;1.75;;;19.50;47.60;;;;;;5124744;27;20217;-84
2021/12/23 13:47:08;;;;;;;4.75;1.38;;;19.50;47.70;;;;;;5107373;27;20176;-84
2021/12/23 13:49:46;;;;;;;3.08;1.60;;;19.50;48.00;;;;;;5109908;27;20174;-83
2021/12/23 13:52:39;;;;;;;5.82;1.80;;;19.50;48.10;;;;;;5093644;27;20242;-84